sensor_id;sensor_type;location;lat;lon;timestamp;P1;durP1;ratioP1;P2;durP2;ratioP2
56399;SDS011;42298;53.638;9.876;2022-12-07T00:00:18;18.43;;;12.47;;
56399;SDS011;42298;53.638;9.876;2022-12-07T00:02:43;22.73;;;13.47;;
56399;SDS011;42298;53.638;9.876;2022-12-07T00:05:09;19.60;;;12.53;;
56399;SDS011;42298;53.638;9.876;2022-12-07T00:07:34;19.57;;;12.80;;
56399;SDS011;42298;53.638;9.876;2022-12-07T00:10:01;18.27;;;12.43;;
56399;SDS011;42298;53.638;9.876;2022-12-07T00:12:26;23.43;;;13.97;;
56399;SDS011;42298;53.638;9.876;2022-12-07T00:14:51;21.23;;;14.07;;
56399;SDS011;42298;53.638;9.876;2022-12-07T00:17:17;20.70;;;13.73;;
56399;SDS011;42298;53.638;9.876;2022-12-07T00:19:42;19.90;;;13.50;;
56399;SDS011;42298;53.638;9.876;2022-12-07T00:22:08;23.23;;;14.43;;
56399;SDS011;42298;53.638;9.876;2022-12-07T00:24:33;22.73;;;15.40;;
56399;SDS011;42298;53.638;9.876;2022-12-07T00:26:58;21.53;;;13.67;;
56399;SDS011;42298;53.638;9.876;2022-12-07T00:29:24;20.97;;;13.97;;
56399;SDS011;42298;53.638;9.876;2022-12-07T00:31:49;24.50;;;14.87;;
56399;SDS011;42298;53.638;9.876;2022-12-07T00:34:16;21.33;;;14.00;;
56399;SDS011;42298;53.638;9.876;2022-12-07T00:36:43;20.73;;;13.20;;
56399;SDS011;42298;53.638;9.876;2022-12-07T00:39:08;22.17;;;13.77;;
56399;SDS011;42298;53.638;9.876;2022-12-07T00:41:34;21.27;;;13.30;;
56399;SDS011;42298;53.638;9.876;2022-12-07T00:43:59;23.60;;;14.33;;
56399;SDS011;42298;53.638;9.876;2022-12-07T00:46:25;18.53;;;12.20;;
56399;SDS011;42298;53.638;9.876;2022-12-07T00:48:51;20.03;;;13.07;;
56399;SDS011;42298;53.638;9.876;2022-12-07T00:51:18;17.80;;;11.97;;
56399;SDS011;42298;53.638;9.876;2022-12-07T00:53:46;19.50;;;12.80;;
56399;SDS011;42298;53.638;9.876;2022-12-07T00:56:12;19.53;;;11.97;;
56399;SDS011;42298;53.638;9.876;2022-12-07T00:58:40;17.53;;;10.87;;
56399;SDS011;42298;53.638;9.876;2022-12-07T01:01:06;17.37;;;10.43;;
56399;SDS011;42298;53.638;9.876;2022-12-07T01:03:32;19.47;;;11.43;;
56399;SDS011;42298;53.638;9.876;2022-12-07T01:05:58;18.70;;;10.63;;
56399;SDS011;42298;53.638;9.876;2022-12-07T01:08:24;16.20;;;9.80;;
56399;SDS011;42298;53.638;9.876;2022-12-07T01:10:57;17.00;;;11.00;;
56399;SDS011;42298;53.638;9.876;2022-12-07T01:13:31;17.93;;;10.23;;
56399;SDS011;42298;53.638;9.876;2022-12-07T01:16:01;19.27;;;10.97;;
56399;SDS011;42298;53.638;9.876;2022-12-07T01:18:28;17.47;;;9.23;;
56399;SDS011;42298;53.638;9.876;2022-12-07T01:21:02;16.07;;;9.83;;
56399;SDS011;42298;53.638;9.876;2022-12-07T01:23:29;16.67;;;9.90;;
56399;SDS011;42298;53.638;9.876;2022-12-07T01:25:59;16.40;;;9.93;;
56399;SDS011;42298;53.638;9.876;2022-12-07T01:28:26;18.10;;;9.80;;
56399;SDS011;42298;53.638;9.876;2022-12-07T01:30:56;17.87;;;10.63;;
56399;SDS011;42298;53.638;9.876;2022-12-07T01:33:22;18.67;;;9.43;;
56399;SDS011;42298;53.638;9.876;2022-12-07T01:35:47;14.60;;;8.40;;
56399;SDS011;42298;53.638;9.876;2022-12-07T01:38:13;15.47;;;8.87;;
56399;SDS011;42298;53.638;9.876;2022-12-07T01:40:38;15.63;;;8.77;;
56399;SDS011;42298;53.638;9.876;2022-12-07T01:43:08;15.57;;;8.90;;
56399;SDS011;42298;53.638;9.876;2022-12-07T01:45:40;15.10;;;9.23;;
56399;SDS011;42298;53.638;9.876;2022-12-07T01:48:07;16.73;;;9.77;;
56399;SDS011;42298;53.638;9.876;2022-12-07T01:50:35;19.30;;;9.47;;
56399;SDS011;42298;53.638;9.876;2022-12-07T01:53:02;19.47;;;9.63;;
56399;SDS011;42298;53.638;9.876;2022-12-07T01:55:30;16.77;;;8.77;;
56399;SDS011;42298;53.638;9.876;2022-12-07T01:57:56;17.30;;;9.00;;
56399;SDS011;42298;53.638;9.876;2022-12-07T02:00:22;20.00;;;9.30;;
56399;SDS011;42298;53.638;9.876;2022-12-07T02:05:16;16.63;;;9.23;;
56399;SDS011;42298;53.638;9.876;2022-12-07T02:07:42;15.20;;;7.87;;
56399;SDS011;42298;53.638;9.876;2022-12-07T02:10:15;14.37;;;8.03;;
56399;SDS011;42298;53.638;9.876;2022-12-07T02:12:42;16.37;;;7.50;;
56399;SDS011;42298;53.638;9.876;2022-12-07T02:15:11;13.10;;;7.37;;
56399;SDS011;42298;53.638;9.876;2022-12-07T02:17:49;13.63;;;7.77;;
56399;SDS011;42298;53.638;9.876;2022-12-07T02:20:32;15.67;;;7.90;;
56399;SDS011;42298;53.638;9.876;2022-12-07T02:23:17;14.57;;;7.10;;
56399;SDS011;42298;53.638;9.876;2022-12-07T02:31:41;16.07;;;6.93;;
56399;SDS011;42298;53.638;9.876;2022-12-07T02:35:12;14.30;;;6.93;;
56399;SDS011;42298;53.638;9.876;2022-12-07T02:37:23;13.70;;;6.60;;
56399;SDS011;42298;53.638;9.876;2022-12-07T02:40:12;13.23;;;6.33;;
56399;SDS011;42298;53.638;9.876;2022-12-07T02:42:46;12.43;;;5.47;;
56399;SDS011;42298;53.638;9.876;2022-12-07T02:45:17;11.77;;;5.60;;
56399;SDS011;42298;53.638;9.876;2022-12-07T02:47:47;12.43;;;4.50;;
56399;SDS011;42298;53.638;9.876;2022-12-07T02:50:14;10.60;;;4.97;;
56399;SDS011;42298;53.638;9.876;2022-12-07T02:52:44;9.87;;;4.77;;
56399;SDS011;42298;53.638;9.876;2022-12-07T02:55:09;10.80;;;4.17;;
56399;SDS011;42298;53.638;9.876;2022-12-07T03:00:24;7.30;;;3.60;;
56399;SDS011;42298;53.638;9.876;2022-12-07T03:02:51;7.83;;;3.20;;
56399;SDS011;42298;53.638;9.876;2022-12-07T03:11:00;5.67;;;3.00;;
56399;SDS011;42298;53.638;9.876;2022-12-07T03:13:33;5.40;;;2.40;;
56399;SDS011;42298;53.638;9.876;2022-12-07T03:19:06;5.40;;;2.27;;
56399;SDS011;42298;53.638;9.876;2022-12-07T03:21:39;2.60;;;1.97;;
56399;SDS011;42298;53.638;9.876;2022-12-07T03:24:08;5.87;;;2.17;;
56399;SDS011;42298;53.638;9.876;2022-12-07T03:26:40;4.93;;;2.10;;
56399;SDS011;42298;53.638;9.876;2022-12-07T03:29:11;5.53;;;2.00;;
56399;SDS011;42298;53.638;9.876;2022-12-07T03:31:43;3.63;;;1.80;;
56399;SDS011;42298;53.638;9.876;2022-12-07T03:34:21;5.10;;;1.90;;
56399;SDS011;42298;53.638;9.876;2022-12-07T03:37:12;3.30;;;1.80;;
56399;SDS011;42298;53.638;9.876;2022-12-07T03:39:49;6.57;;;1.93;;
56399;SDS011;42298;53.638;9.876;2022-12-07T03:42:37;7.27;;;2.63;;
56399;SDS011;42298;53.638;9.876;2022-12-07T03:45:03;2.10;;;1.90;;
56399;SDS011;42298;53.638;9.876;2022-12-07T03:47:32;3.77;;;2.33;;
56399;SDS011;42298;53.638;9.876;2022-12-07T03:50:07;4.30;;;2.10;;
56399;SDS011;42298;53.638;9.876;2022-12-07T03:55:35;8.10;;;2.40;;
56399;SDS011;42298;53.638;9.876;2022-12-07T03:58:05;5.57;;;2.60;;
56399;SDS011;42298;53.638;9.876;2022-12-07T04:00:34;6.03;;;2.57;;
56399;SDS011;42298;53.638;9.876;2022-12-07T04:02:59;5.27;;;2.57;;
56399;SDS011;42298;53.638;9.876;2022-12-07T04:05:25;9.17;;;3.03;;
56399;SDS011;42298;53.638;9.876;2022-12-07T04:07:51;6.20;;;2.87;;
56399;SDS011;42298;53.638;9.876;2022-12-07T04:10:16;8.60;;;3.00;;
56399;SDS011;42298;53.638;9.876;2022-12-07T04:12:42;9.53;;;3.17;;
56399;SDS011;42298;53.638;9.876;2022-12-07T04:15:08;8.70;;;3.30;;
56399;SDS011;42298;53.638;9.876;2022-12-07T04:17:33;6.80;;;3.07;;
56399;SDS011;42298;53.638;9.876;2022-12-07T04:19:59;9.50;;;3.23;;
56399;SDS011;42298;53.638;9.876;2022-12-07T04:22:24;7.27;;;3.30;;
56399;SDS011;42298;53.638;9.876;2022-12-07T04:24:49;6.20;;;3.00;;
56399;SDS011;42298;53.638;9.876;2022-12-07T04:27:15;8.23;;;3.23;;
56399;SDS011;42298;53.638;9.876;2022-12-07T04:29:40;7.63;;;3.23;;
56399;SDS011;42298;53.638;9.876;2022-12-07T04:32:06;7.17;;;3.40;;
56399;SDS011;42298;53.638;9.876;2022-12-07T04:34:31;7.33;;;3.30;;
56399;SDS011;42298;53.638;9.876;2022-12-07T04:36:56;5.97;;;3.20;;
56399;SDS011;42298;53.638;9.876;2022-12-07T04:39:26;7.40;;;3.60;;
56399;SDS011;42298;53.638;9.876;2022-12-07T04:41:53;7.43;;;3.47;;
56399;SDS011;42298;53.638;9.876;2022-12-07T04:44:19;9.80;;;3.30;;
56399;SDS011;42298;53.638;9.876;2022-12-07T04:46:45;8.77;;;3.30;;
56399;SDS011;42298;53.638;9.876;2022-12-07T04:49:12;7.63;;;3.23;;
56399;SDS011;42298;53.638;9.876;2022-12-07T04:51:38;8.03;;;3.53;;
56399;SDS011;42298;53.638;9.876;2022-12-07T04:54:04;8.17;;;2.83;;
56399;SDS011;42298;53.638;9.876;2022-12-07T04:56:30;9.40;;;3.20;;
56399;SDS011;42298;53.638;9.876;2022-12-07T04:58:55;6.90;;;2.87;;
56399;SDS011;42298;53.638;9.876;2022-12-07T05:01:21;9.57;;;3.70;;
56399;SDS011;42298;53.638;9.876;2022-12-07T05:03:47;6.73;;;3.47;;
56399;SDS011;42298;53.638;9.876;2022-12-07T05:06:13;4.93;;;2.50;;
56399;SDS011;42298;53.638;9.876;2022-12-07T05:08:39;6.63;;;3.10;;
56399;SDS011;42298;53.638;9.876;2022-12-07T05:11:05;6.63;;;3.00;;
56399;SDS011;42298;53.638;9.876;2022-12-07T05:13:32;7.20;;;3.13;;
56399;SDS011;42298;53.638;9.876;2022-12-07T05:15:57;7.93;;;3.20;;
56399;SDS011;42298;53.638;9.876;2022-12-07T05:18:23;5.90;;;3.13;;
56399;SDS011;42298;53.638;9.876;2022-12-07T05:20:49;8.97;;;3.20;;
56399;SDS011;42298;53.638;9.876;2022-12-07T05:23:15;7.27;;;3.60;;
56399;SDS011;42298;53.638;9.876;2022-12-07T05:25:41;6.67;;;3.33;;
56399;SDS011;42298;53.638;9.876;2022-12-07T05:28:07;7.80;;;3.03;;
56399;SDS011;42298;53.638;9.876;2022-12-07T05:30:32;6.63;;;2.90;;
56399;SDS011;42298;53.638;9.876;2022-12-07T05:32:58;5.57;;;2.90;;
56399;SDS011;42298;53.638;9.876;2022-12-07T05:35:23;7.03;;;3.20;;
56399;SDS011;42298;53.638;9.876;2022-12-07T05:37:49;8.50;;;3.80;;
56399;SDS011;42298;53.638;9.876;2022-12-07T05:40:14;6.63;;;3.30;;
56399;SDS011;42298;53.638;9.876;2022-12-07T05:42:41;9.40;;;3.47;;
56399;SDS011;42298;53.638;9.876;2022-12-07T05:45:06;5.93;;;3.20;;
56399;SDS011;42298;53.638;9.876;2022-12-07T05:47:33;7.97;;;3.80;;
56399;SDS011;42298;53.638;9.876;2022-12-07T05:49:58;6.27;;;3.17;;
56399;SDS011;42298;53.638;9.876;2022-12-07T05:52:24;6.67;;;3.47;;
56399;SDS011;42298;53.638;9.876;2022-12-07T05:54:49;6.73;;;3.40;;
56399;SDS011;42298;53.638;9.876;2022-12-07T05:57:15;5.30;;;3.00;;
56399;SDS011;42298;53.638;9.876;2022-12-07T05:59:40;5.53;;;3.40;;
56399;SDS011;42298;53.638;9.876;2022-12-07T06:02:10;6.10;;;3.13;;
56399;SDS011;42298;53.638;9.876;2022-12-07T06:04:38;8.00;;;3.30;;
56399;SDS011;42298;53.638;9.876;2022-12-07T06:07:08;9.07;;;3.63;;
56399;SDS011;42298;53.638;9.876;2022-12-07T06:09:35;5.40;;;2.90;;
56399;SDS011;42298;53.638;9.876;2022-12-07T06:12:00;7.80;;;3.47;;
56399;SDS011;42298;53.638;9.876;2022-12-07T06:14:44;6.77;;;3.47;;
56399;SDS011;42298;53.638;9.876;2022-12-07T06:17:10;5.97;;;2.67;;
56399;SDS011;42298;53.638;9.876;2022-12-07T06:19:36;5.50;;;3.17;;
56399;SDS011;42298;53.638;9.876;2022-12-07T06:22:01;6.33;;;3.20;;
56399;SDS011;42298;53.638;9.876;2022-12-07T06:24:27;8.40;;;3.53;;
56399;SDS011;42298;53.638;9.876;2022-12-07T06:26:53;6.90;;;3.30;;
56399;SDS011;42298;53.638;9.876;2022-12-07T06:29:18;5.87;;;3.00;;
56399;SDS011;42298;53.638;9.876;2022-12-07T06:31:44;8.33;;;3.40;;
56399;SDS011;42298;53.638;9.876;2022-12-07T06:34:11;8.83;;;3.57;;
56399;SDS011;42298;53.638;9.876;2022-12-07T06:36:39;7.73;;;3.47;;
56399;SDS011;42298;53.638;9.876;2022-12-07T06:39:04;8.03;;;3.27;;
56399;SDS011;42298;53.638;9.876;2022-12-07T06:41:31;6.73;;;3.50;;
56399;SDS011;42298;53.638;9.876;2022-12-07T06:43:57;8.67;;;3.80;;
56399;SDS011;42298;53.638;9.876;2022-12-07T06:46:22;7.37;;;3.57;;
56399;SDS011;42298;53.638;9.876;2022-12-07T06:48:48;9.13;;;3.70;;
56399;SDS011;42298;53.638;9.876;2022-12-07T06:51:13;11.03;;;4.23;;
56399;SDS011;42298;53.638;9.876;2022-12-07T06:53:39;6.73;;;3.47;;
56399;SDS011;42298;53.638;9.876;2022-12-07T06:56:04;9.37;;;3.37;;
56399;SDS011;42298;53.638;9.876;2022-12-07T06:58:30;9.00;;;3.63;;
56399;SDS011;42298;53.638;9.876;2022-12-07T07:00:55;6.77;;;3.03;;
56399;SDS011;42298;53.638;9.876;2022-12-07T07:03:21;9.70;;;3.50;;
56399;SDS011;42298;53.638;9.876;2022-12-07T07:05:46;10.37;;;3.40;;
56399;SDS011;42298;53.638;9.876;2022-12-07T07:08:12;8.53;;;3.13;;
56399;SDS011;42298;53.638;9.876;2022-12-07T07:10:38;7.97;;;3.23;;
56399;SDS011;42298;53.638;9.876;2022-12-07T07:13:04;6.30;;;2.63;;
56399;SDS011;42298;53.638;9.876;2022-12-07T07:15:30;5.50;;;3.10;;
56399;SDS011;42298;53.638;9.876;2022-12-07T07:17:55;8.33;;;2.93;;
56399;SDS011;42298;53.638;9.876;2022-12-07T07:20:21;5.43;;;2.73;;
56399;SDS011;42298;53.638;9.876;2022-12-07T07:22:47;9.33;;;2.80;;
56399;SDS011;42298;53.638;9.876;2022-12-07T07:25:12;7.13;;;2.77;;
56399;SDS011;42298;53.638;9.876;2022-12-07T07:27:38;7.50;;;2.50;;
56399;SDS011;42298;53.638;9.876;2022-12-07T07:30:03;6.43;;;2.30;;
56399;SDS011;42298;53.638;9.876;2022-12-07T07:32:30;7.00;;;2.60;;
56399;SDS011;42298;53.638;9.876;2022-12-07T07:34:55;6.93;;;2.30;;
56399;SDS011;42298;53.638;9.876;2022-12-07T07:37:20;8.60;;;2.73;;
56399;SDS011;42298;53.638;9.876;2022-12-07T07:39:46;6.07;;;2.43;;
56399;SDS011;42298;53.638;9.876;2022-12-07T07:42:11;6.43;;;2.20;;
56399;SDS011;42298;53.638;9.876;2022-12-07T07:44:36;6.03;;;2.50;;
56399;SDS011;42298;53.638;9.876;2022-12-07T07:47:03;6.90;;;2.63;;
56399;SDS011;42298;53.638;9.876;2022-12-07T07:49:28;4.73;;;2.23;;
56399;SDS011;42298;53.638;9.876;2022-12-07T07:51:54;4.13;;;2.00;;
56399;SDS011;42298;53.638;9.876;2022-12-07T07:54:19;6.37;;;2.40;;
56399;SDS011;42298;53.638;9.876;2022-12-07T07:56:44;8.93;;;2.00;;
56399;SDS011;42298;53.638;9.876;2022-12-07T07:59:10;3.83;;;2.03;;
56399;SDS011;42298;53.638;9.876;2022-12-07T08:01:35;4.13;;;2.00;;
56399;SDS011;42298;53.638;9.876;2022-12-07T08:04:00;4.80;;;2.07;;
56399;SDS011;42298;53.638;9.876;2022-12-07T08:06:26;10.40;;;2.40;;
56399;SDS011;42298;53.638;9.876;2022-12-07T08:08:53;6.67;;;2.23;;
56399;SDS011;42298;53.638;9.876;2022-12-07T08:13:53;5.03;;;2.17;;
56399;SDS011;42298;53.638;9.876;2022-12-07T08:16:19;5.50;;;2.27;;
56399;SDS011;42298;53.638;9.876;2022-12-07T08:18:44;8.83;;;2.07;;
56399;SDS011;42298;53.638;9.876;2022-12-07T08:21:11;5.37;;;1.80;;
56399;SDS011;42298;53.638;9.876;2022-12-07T08:23:38;6.60;;;2.13;;
56399;SDS011;42298;53.638;9.876;2022-12-07T08:26:04;5.77;;;2.03;;
56399;SDS011;42298;53.638;9.876;2022-12-07T08:28:34;6.33;;;2.30;;
56399;SDS011;42298;53.638;9.876;2022-12-07T08:31:00;4.80;;;1.80;;
56399;SDS011;42298;53.638;9.876;2022-12-07T08:33:26;5.63;;;2.27;;
56399;SDS011;42298;53.638;9.876;2022-12-07T08:35:52;5.93;;;2.10;;
56399;SDS011;42298;53.638;9.876;2022-12-07T08:38:21;8.33;;;2.60;;
56399;SDS011;42298;53.638;9.876;2022-12-07T08:40:57;4.70;;;2.13;;
56399;SDS011;42298;53.638;9.876;2022-12-07T08:43:23;5.33;;;2.20;;
56399;SDS011;42298;53.638;9.876;2022-12-07T08:45:49;5.97;;;2.17;;
56399;SDS011;42298;53.638;9.876;2022-12-07T08:48:40;4.70;;;2.00;;
56399;SDS011;42298;53.638;9.876;2022-12-07T08:51:09;7.93;;;2.20;;
56399;SDS011;42298;53.638;9.876;2022-12-07T08:53:35;7.03;;;2.33;;
56399;SDS011;42298;53.638;9.876;2022-12-07T08:56:02;6.37;;;2.17;;
56399;SDS011;42298;53.638;9.876;2022-12-07T08:58:28;9.13;;;2.63;;
56399;SDS011;42298;53.638;9.876;2022-12-07T09:00:54;4.07;;;2.00;;
56399;SDS011;42298;53.638;9.876;2022-12-07T09:03:19;7.77;;;2.50;;
56399;SDS011;42298;53.638;9.876;2022-12-07T09:05:44;6.80;;;2.20;;
56399;SDS011;42298;53.638;9.876;2022-12-07T09:08:10;6.10;;;2.20;;
56399;SDS011;42298;53.638;9.876;2022-12-07T09:10:35;7.00;;;2.23;;
56399;SDS011;42298;53.638;9.876;2022-12-07T09:13:01;7.07;;;2.10;;
56399;SDS011;42298;53.638;9.876;2022-12-07T09:15:27;4.57;;;2.03;;
56399;SDS011;42298;53.638;9.876;2022-12-07T09:17:53;8.40;;;2.97;;
56399;SDS011;42298;53.638;9.876;2022-12-07T09:20:19;13.57;;;3.73;;
56399;SDS011;42298;53.638;9.876;2022-12-07T09:22:44;16.10;;;4.50;;
56399;SDS011;42298;53.638;9.876;2022-12-07T09:25:09;13.23;;;3.63;;
56399;SDS011;42298;53.638;9.876;2022-12-07T09:27:35;11.70;;;2.87;;
56399;SDS011;42298;53.638;9.876;2022-12-07T09:30:00;8.13;;;2.53;;
56399;SDS011;42298;53.638;9.876;2022-12-07T09:32:26;8.20;;;2.23;;
56399;SDS011;42298;53.638;9.876;2022-12-07T09:34:51;8.90;;;2.73;;
56399;SDS011;42298;53.638;9.876;2022-12-07T09:37:17;9.90;;;2.40;;
56399;SDS011;42298;53.638;9.876;2022-12-07T09:39:42;9.33;;;2.00;;
56399;SDS011;42298;53.638;9.876;2022-12-07T09:42:07;6.60;;;2.43;;
56399;SDS011;42298;53.638;9.876;2022-12-07T09:44:33;6.63;;;2.50;;
56399;SDS011;42298;53.638;9.876;2022-12-07T09:47:00;5.13;;;2.40;;
56399;SDS011;42298;53.638;9.876;2022-12-07T09:49:28;8.47;;;2.43;;
56399;SDS011;42298;53.638;9.876;2022-12-07T09:52:00;8.90;;;2.80;;
56399;SDS011;42298;53.638;9.876;2022-12-07T09:54:28;8.90;;;2.60;;
56399;SDS011;42298;53.638;9.876;2022-12-07T09:56:54;8.27;;;2.47;;
56399;SDS011;42298;53.638;9.876;2022-12-07T09:59:19;7.80;;;2.13;;
56399;SDS011;42298;53.638;9.876;2022-12-07T10:01:48;6.77;;;2.23;;
56399;SDS011;42298;53.638;9.876;2022-12-07T10:04:16;5.60;;;1.80;;
56399;SDS011;42298;53.638;9.876;2022-12-07T10:06:45;6.87;;;2.30;;
56399;SDS011;42298;53.638;9.876;2022-12-07T10:09:13;7.40;;;2.00;;
56399;SDS011;42298;53.638;9.876;2022-12-07T10:11:58;5.40;;;2.03;;
56399;SDS011;42298;53.638;9.876;2022-12-07T10:14:35;8.67;;;1.80;;
56399;SDS011;42298;53.638;9.876;2022-12-07T10:17:15;7.13;;;1.73;;
56399;SDS011;42298;53.638;9.876;2022-12-07T10:19:51;3.60;;;1.57;;
56399;SDS011;42298;53.638;9.876;2022-12-07T10:22:16;7.03;;;1.67;;
56399;SDS011;42298;53.638;9.876;2022-12-07T10:24:42;6.43;;;1.70;;
56399;SDS011;42298;53.638;9.876;2022-12-07T10:27:18;9.07;;;2.33;;
56399;SDS011;42298;53.638;9.876;2022-12-07T10:29:50;4.70;;;1.70;;
56399;SDS011;42298;53.638;9.876;2022-12-07T10:34:42;5.20;;;1.57;;
56399;SDS011;42298;53.638;9.876;2022-12-07T10:42:19;10.90;;;2.03;;
56399;SDS011;42298;53.638;9.876;2022-12-07T10:44:45;8.43;;;1.87;;
56399;SDS011;42298;53.638;9.876;2022-12-07T10:47:18;7.03;;;1.87;;
56399;SDS011;42298;53.638;9.876;2022-12-07T10:55:26;8.77;;;2.17;;
56399;SDS011;42298;53.638;9.876;2022-12-07T11:01:31;9.90;;;2.20;;
56399;SDS011;42298;53.638;9.876;2022-12-07T11:06:36;6.07;;;2.20;;
56399;SDS011;42298;53.638;9.876;2022-12-07T11:23:04;6.73;;;1.97;;
56399;SDS011;42298;53.638;9.876;2022-12-07T11:36:07;9.53;;;2.33;;
56399;SDS011;42298;53.638;9.876;2022-12-07T11:38:55;7.47;;;1.87;;
56399;SDS011;42298;53.638;9.876;2022-12-07T11:41:29;10.57;;;1.90;;
56399;SDS011;42298;53.638;9.876;2022-12-07T11:46:48;8.30;;;2.30;;
56399;SDS011;42298;53.638;9.876;2022-12-07T11:51:57;6.80;;;2.10;;
56399;SDS011;42298;53.638;9.876;2022-12-07T11:54:29;9.30;;;3.13;;
56399;SDS011;42298;53.638;9.876;2022-12-07T11:57:01;5.83;;;1.97;;
56399;SDS011;42298;53.638;9.876;2022-12-07T11:59:38;5.43;;;1.60;;
56399;SDS011;42298;53.638;9.876;2022-12-07T12:02:16;7.93;;;2.00;;
56399;SDS011;42298;53.638;9.876;2022-12-07T12:04:59;14.10;;;2.77;;
56399;SDS011;42298;53.638;9.876;2022-12-07T12:07:32;7.97;;;1.83;;
56399;SDS011;42298;53.638;9.876;2022-12-07T12:10:04;8.27;;;1.97;;
56399;SDS011;42298;53.638;9.876;2022-12-07T12:15:29;7.67;;;1.90;;
56399;SDS011;42298;53.638;9.876;2022-12-07T12:18:16;10.60;;;2.10;;
56399;SDS011;42298;53.638;9.876;2022-12-07T12:20:55;7.47;;;2.30;;
56399;SDS011;42298;53.638;9.876;2022-12-07T12:26:24;9.50;;;1.87;;
56399;SDS011;42298;53.638;9.876;2022-12-07T12:33:52;5.77;;;2.20;;
56399;SDS011;42298;53.638;9.876;2022-12-07T12:36:24;12.77;;;2.10;;
56399;SDS011;42298;53.638;9.876;2022-12-07T12:49:30;10.83;;;2.70;;
56399;SDS011;42298;53.638;9.876;2022-12-07T12:54:41;9.57;;;2.27;;
56399;SDS011;42298;53.638;9.876;2022-12-07T12:57:33;8.40;;;2.30;;
56399;SDS011;42298;53.638;9.876;2022-12-07T13:00:00;10.87;;;2.37;;
56399;SDS011;42298;53.638;9.876;2022-12-07T13:02:56;10.67;;;2.10;;
56399;SDS011;42298;53.638;9.876;2022-12-07T13:05:28;11.47;;;2.93;;
56399;SDS011;42298;53.638;9.876;2022-12-07T13:07:58;8.43;;;2.27;;
56399;SDS011;42298;53.638;9.876;2022-12-07T13:12:55;6.80;;;2.10;;
56399;SDS011;42298;53.638;9.876;2022-12-07T13:15:38;10.87;;;2.30;;
56399;SDS011;42298;53.638;9.876;2022-12-07T13:20:54;8.73;;;1.83;;
56399;SDS011;42298;53.638;9.876;2022-12-07T13:26:18;11.77;;;2.00;;
56399;SDS011;42298;53.638;9.876;2022-12-07T13:31:47;6.20;;;1.80;;
56399;SDS011;42298;53.638;9.876;2022-12-07T13:37:10;4.87;;;1.40;;
56399;SDS011;42298;53.638;9.876;2022-12-07T13:39:54;6.90;;;1.73;;
56399;SDS011;42298;53.638;9.876;2022-12-07T13:44:54;5.83;;;2.07;;
56399;SDS011;42298;53.638;9.876;2022-12-07T13:47:23;11.23;;;2.20;;
56399;SDS011;42298;53.638;9.876;2022-12-07T13:49:52;7.07;;;1.90;;
56399;SDS011;42298;53.638;9.876;2022-12-07T13:52:20;9.50;;;1.93;;
56399;SDS011;42298;53.638;9.876;2022-12-07T13:54:58;7.97;;;2.40;;
56399;SDS011;42298;53.638;9.876;2022-12-07T13:57:44;9.23;;;2.43;;
56399;SDS011;42298;53.638;9.876;2022-12-07T14:00:26;6.87;;;1.70;;
56399;SDS011;42298;53.638;9.876;2022-12-07T14:02:59;4.73;;;1.47;;
56399;SDS011;42298;53.638;9.876;2022-12-07T14:05:27;19.83;;;2.30;;
56399;SDS011;42298;53.638;9.876;2022-12-07T14:10:36;5.00;;;1.60;;
56399;SDS011;42298;53.638;9.876;2022-12-07T14:13:30;5.77;;;1.90;;
56399;SDS011;42298;53.638;9.876;2022-12-07T14:16:00;8.13;;;1.63;;
56399;SDS011;42298;53.638;9.876;2022-12-07T14:21:04;7.40;;;2.07;;
56399;SDS011;42298;53.638;9.876;2022-12-07T14:26:37;3.73;;;1.40;;
56399;SDS011;42298;53.638;9.876;2022-12-07T14:31:57;6.00;;;2.07;;
56399;SDS011;42298;53.638;9.876;2022-12-07T14:34:24;3.23;;;1.43;;
56399;SDS011;42298;53.638;9.876;2022-12-07T14:36:49;3.67;;;1.60;;
56399;SDS011;42298;53.638;9.876;2022-12-07T14:39:15;6.90;;;2.10;;
56399;SDS011;42298;53.638;9.876;2022-12-07T14:41:41;7.73;;;2.07;;
56399;SDS011;42298;53.638;9.876;2022-12-07T14:44:15;7.00;;;2.03;;
56399;SDS011;42298;53.638;9.876;2022-12-07T14:46:41;4.47;;;1.60;;
56399;SDS011;42298;53.638;9.876;2022-12-07T14:49:07;5.30;;;1.63;;
56399;SDS011;42298;53.638;9.876;2022-12-07T14:51:33;5.93;;;1.60;;
56399;SDS011;42298;53.638;9.876;2022-12-07T14:54:02;6.57;;;1.60;;
56399;SDS011;42298;53.638;9.876;2022-12-07T14:56:31;4.40;;;1.40;;
56399;SDS011;42298;53.638;9.876;2022-12-07T14:58:56;4.93;;;1.67;;
56399;SDS011;42298;53.638;9.876;2022-12-07T15:01:22;4.40;;;1.80;;
56399;SDS011;42298;53.638;9.876;2022-12-07T15:03:47;6.27;;;1.90;;
56399;SDS011;42298;53.638;9.876;2022-12-07T15:06:14;7.73;;;2.80;;
56399;SDS011;42298;53.638;9.876;2022-12-07T15:08:41;6.57;;;2.40;;
56399;SDS011;42298;53.638;9.876;2022-12-07T15:11:09;9.60;;;2.80;;
56399;SDS011;42298;53.638;9.876;2022-12-07T15:13:37;6.57;;;2.40;;
56399;SDS011;42298;53.638;9.876;2022-12-07T15:16:20;7.13;;;2.27;;
56399;SDS011;42298;53.638;9.876;2022-12-07T15:18:46;8.67;;;2.70;;
56399;SDS011;42298;53.638;9.876;2022-12-07T15:21:13;7.57;;;2.77;;
56399;SDS011;42298;53.638;9.876;2022-12-07T15:23:40;10.53;;;2.70;;
56399;SDS011;42298;53.638;9.876;2022-12-07T15:26:05;7.00;;;2.67;;
56399;SDS011;42298;53.638;9.876;2022-12-07T15:28:31;7.10;;;2.83;;
56399;SDS011;42298;53.638;9.876;2022-12-07T15:30:56;9.90;;;3.10;;
56399;SDS011;42298;53.638;9.876;2022-12-07T15:33:21;8.20;;;2.60;;
56399;SDS011;42298;53.638;9.876;2022-12-07T15:35:47;7.40;;;2.40;;
56399;SDS011;42298;53.638;9.876;2022-12-07T15:38:12;6.07;;;2.00;;
56399;SDS011;42298;53.638;9.876;2022-12-07T15:40:38;5.50;;;2.00;;
56399;SDS011;42298;53.638;9.876;2022-12-07T15:43:03;4.10;;;1.73;;
56399;SDS011;42298;53.638;9.876;2022-12-07T15:45:29;5.00;;;2.10;;
56399;SDS011;42298;53.638;9.876;2022-12-07T15:47:54;3.17;;;1.93;;
56399;SDS011;42298;53.638;9.876;2022-12-07T15:50:20;7.47;;;2.20;;
56399;SDS011;42298;53.638;9.876;2022-12-07T15:52:46;4.17;;;1.80;;
56399;SDS011;42298;53.638;9.876;2022-12-07T15:55:11;4.67;;;1.97;;
56399;SDS011;42298;53.638;9.876;2022-12-07T15:57:37;6.37;;;1.90;;
56399;SDS011;42298;53.638;9.876;2022-12-07T16:00:04;7.43;;;2.30;;
56399;SDS011;42298;53.638;9.876;2022-12-07T16:02:31;6.97;;;2.37;;
56399;SDS011;42298;53.638;9.876;2022-12-07T16:04:57;6.67;;;2.73;;
56399;SDS011;42298;53.638;9.876;2022-12-07T16:07:22;5.70;;;1.90;;
56399;SDS011;42298;53.638;9.876;2022-12-07T16:09:48;7.13;;;2.57;;
56399;SDS011;42298;53.638;9.876;2022-12-07T16:12:14;4.50;;;1.97;;
56399;SDS011;42298;53.638;9.876;2022-12-07T16:14:40;5.93;;;2.47;;
56399;SDS011;42298;53.638;9.876;2022-12-07T16:17:06;4.53;;;1.90;;
56399;SDS011;42298;53.638;9.876;2022-12-07T16:19:32;7.47;;;2.50;;
56399;SDS011;42298;53.638;9.876;2022-12-07T16:21:58;8.63;;;2.60;;
56399;SDS011;42298;53.638;9.876;2022-12-07T16:24:24;7.33;;;2.93;;
56399;SDS011;42298;53.638;9.876;2022-12-07T16:26:50;8.97;;;2.87;;
56399;SDS011;42298;53.638;9.876;2022-12-07T16:29:15;11.33;;;3.33;;
56399;SDS011;42298;53.638;9.876;2022-12-07T16:31:46;10.77;;;3.33;;
56399;SDS011;42298;53.638;9.876;2022-12-07T16:34:11;10.83;;;2.97;;
56399;SDS011;42298;53.638;9.876;2022-12-07T16:36:37;12.40;;;3.43;;
56399;SDS011;42298;53.638;9.876;2022-12-07T16:39:02;11.70;;;3.53;;
56399;SDS011;42298;53.638;9.876;2022-12-07T16:41:28;9.03;;;3.67;;
56399;SDS011;42298;53.638;9.876;2022-12-07T16:43:54;11.57;;;3.47;;
56399;SDS011;42298;53.638;9.876;2022-12-07T16:46:19;8.23;;;3.00;;
56399;SDS011;42298;53.638;9.876;2022-12-07T16:48:44;9.70;;;3.77;;
56399;SDS011;42298;53.638;9.876;2022-12-07T16:51:11;10.13;;;3.90;;
56399;SDS011;42298;53.638;9.876;2022-12-07T16:53:38;11.00;;;3.77;;
56399;SDS011;42298;53.638;9.876;2022-12-07T16:56:12;11.93;;;4.00;;